createdAt,value
2024-01-24T00:01:14.662Z,15.23
2024-01-24T00:03:41.904Z,15.15
2024-01-24T00:06:08.979Z,14.50
2024-01-24T00:08:36.030Z,10.27
2024-01-24T00:11:03.309Z,13.57
2024-01-24T00:13:30.336Z,16.13
2024-01-24T00:15:57.365Z,17.10
2024-01-24T00:18:24.485Z,14.90
2024-01-24T00:20:52.357Z,14.73
2024-01-24T00:23:19.374Z,18.77
2024-01-24T00:25:46.348Z,31.48
2024-01-24T00:28:16.607Z,34.78
2024-01-24T00:30:47.353Z,38.13
2024-01-24T00:33:16.750Z,26.05
2024-01-24T00:35:43.767Z,16.77
2024-01-24T00:38:10.721Z,22.70
2024-01-24T00:40:38.265Z,42.45
2024-01-24T00:43:06.853Z,48.60
2024-01-24T00:45:33.915Z,57.38
2024-01-24T00:48:00.982Z,55.85
2024-01-24T00:50:28.063Z,57.60
2024-01-24T00:52:56.852Z,59.50
2024-01-24T00:55:25.810Z,51.90
2024-01-24T00:57:53.638Z,52.25
2024-01-24T01:00:20.776Z,52.53
2024-01-24T01:02:47.848Z,53.92
2024-01-24T01:05:15.061Z,58.80
2024-01-24T01:07:42.107Z,51.08
2024-01-24T01:10:10.288Z,56.17
2024-01-24T01:12:37.429Z,52.47
2024-01-24T01:15:04.844Z,65.40
2024-01-24T01:17:31.926Z,68.75
2024-01-24T01:20:00.231Z,64.43
2024-01-24T01:22:27.879Z,68.38
2024-01-24T01:24:54.978Z,76.00
2024-01-24T01:27:23.735Z,74.45
2024-01-24T01:29:50.713Z,95.03
2024-01-24T01:32:17.694Z,69.72
2024-01-24T01:34:44.740Z,67.03
2024-01-24T01:37:11.742Z,57.53
2024-01-24T01:39:38.795Z,59.75
2024-01-24T01:42:07.494Z,53.03
2024-01-24T01:44:44.362Z,52.95
2024-01-24T01:47:12.101Z,54.28
2024-01-24T01:49:39.682Z,54.72
2024-01-24T01:52:07.969Z,57.22
2024-01-24T01:54:35.306Z,57.55
2024-01-24T01:57:03.363Z,71.68
2024-01-24T01:59:30.415Z,62.78
2024-01-24T02:02:00.326Z,60.88
2024-01-24T02:04:28.081Z,61.45
2024-01-24T02:06:56.899Z,61.53
2024-01-24T02:09:24.844Z,54.90
2024-01-24T02:11:51.917Z,55.10
2024-01-24T02:14:18.889Z,66.43
2024-01-24T02:16:45.975Z,73.25
2024-01-24T02:19:12.982Z,73.32
2024-01-24T02:21:40.125Z,63.78
2024-01-24T02:24:11.640Z,79.25
2024-01-24T02:26:38.620Z,67.35
2024-01-24T02:29:06.084Z,65.28
2024-01-24T02:31:32.998Z,56.47
2024-01-24T02:34:00.056Z,62.45
2024-01-24T02:36:27.072Z,61.90
2024-01-24T02:38:56.261Z,71.45
2024-01-24T02:41:24.724Z,61.33
2024-01-24T02:43:51.668Z,52.25
2024-01-24T02:46:18.632Z,59.00
2024-01-24T02:48:45.927Z,52.60
2024-01-24T02:51:13.106Z,48.90
2024-01-24T02:53:40.331Z,48.05
2024-01-24T02:56:07.411Z,46.33
2024-01-24T02:58:34.447Z,43.47
2024-01-24T03:01:01.471Z,42.63
2024-01-24T03:03:28.533Z,41.63
2024-01-24T03:05:55.657Z,39.28
2024-01-24T03:08:22.635Z,39.38
2024-01-24T03:10:49.604Z,39.60
2024-01-24T03:13:16.598Z,44.53
2024-01-24T03:15:43.598Z,37.25
2024-01-24T03:18:10.699Z,34.63
2024-01-24T03:20:38.951Z,38.40
2024-01-24T03:23:06.029Z,33.80
2024-01-24T03:25:33.084Z,36.38
2024-01-24T03:28:00.143Z,36.75
2024-01-24T03:30:27.193Z,39.92
2024-01-24T03:32:54.155Z,36.63
2024-01-24T03:35:21.148Z,33.90
2024-01-24T03:37:48.089Z,31.98
2024-01-24T03:40:15.150Z,29.73
2024-01-24T03:42:42.332Z,26.50
2024-01-24T03:45:09.958Z,26.63
2024-01-24T03:47:36.899Z,37.53
2024-01-24T03:50:04.033Z,35.65
2024-01-24T03:52:31.013Z,30.30
2024-01-24T03:54:58.036Z,30.85
2024-01-24T03:57:25.066Z,35.55
2024-01-24T03:59:52.013Z,35.63
2024-01-24T04:02:18.937Z,35.22
2024-01-24T04:04:45.955Z,34.58
2024-01-24T04:07:12.976Z,44.75
2024-01-24T04:09:39.957Z,33.97
2024-01-24T04:12:07.108Z,41.45
2024-01-24T04:14:34.035Z,40.58
2024-01-24T04:17:01.041Z,43.97
2024-01-24T04:19:28.129Z,39.88
2024-01-24T04:21:55.249Z,40.67
2024-01-24T04:24:22.340Z,33.75
2024-01-24T04:26:49.554Z,35.90
2024-01-24T04:29:18.037Z,32.53
2024-01-24T04:31:45.460Z,41.80
2024-01-24T04:34:12.446Z,45.42
2024-01-24T04:36:39.479Z,47.47
2024-01-24T04:39:06.816Z,42.30
2024-01-24T04:41:34.717Z,43.13
2024-01-24T04:44:02.502Z,38.65
2024-01-24T04:46:29.494Z,47.03
2024-01-24T04:48:56.632Z,49.60
2024-01-24T04:51:23.717Z,48.88
2024-01-24T04:53:51.488Z,48.83
2024-01-24T04:56:18.491Z,52.33
2024-01-24T04:58:45.473Z,55.78
2024-01-24T05:01:12.947Z,52.35
2024-01-24T05:03:40.021Z,45.65
2024-01-24T05:06:10.957Z,51.92
2024-01-24T05:08:38.710Z,48.83
2024-01-24T05:11:06.441Z,39.33
2024-01-24T05:13:33.476Z,42.47
2024-01-24T05:16:00.780Z,42.97
2024-01-24T05:18:27.909Z,40.33
2024-01-24T05:20:54.969Z,39.20
2024-01-24T05:23:22.383Z,42.15
2024-01-24T05:25:49.397Z,37.33
2024-01-24T05:28:17.400Z,32.78
2024-01-24T05:30:44.399Z,43.88
2024-01-24T05:33:12.092Z,37.47
2024-01-24T05:35:39.259Z,42.50
2024-01-24T05:38:06.204Z,42.75
2024-01-24T05:40:33.143Z,34.35
2024-01-24T05:43:01.421Z,33.30
2024-01-24T05:45:28.858Z,35.55
2024-01-24T05:47:55.913Z,34.40
2024-01-24T05:50:23.492Z,34.42
2024-01-24T05:52:50.480Z,31.77
2024-01-24T05:55:17.620Z,37.55
2024-01-24T05:57:47.532Z,34.97
2024-01-24T06:00:16.160Z,35.92
2024-01-24T06:02:44.624Z,33.00
2024-01-24T06:05:13.270Z,42.47
2024-01-24T06:07:40.584Z,41.35
2024-01-24T06:10:08.574Z,42.63
2024-01-24T06:12:35.634Z,44.70
2024-01-24T06:15:03.550Z,41.58
2024-01-24T06:17:32.264Z,43.78
2024-01-24T06:20:00.919Z,39.20
2024-01-24T06:22:28.017Z,38.65
2024-01-24T06:24:56.660Z,50.80
2024-01-24T06:27:23.644Z,59.80
2024-01-24T06:30:17.327Z,84.25
2024-01-24T06:32:39.322Z,93.93
2024-01-24T06:35:06.733Z,81.15
2024-01-24T06:37:33.761Z,71.15
2024-01-24T06:40:01.540Z,65.18
2024-01-24T06:42:28.499Z,75.25
2024-01-24T06:44:55.666Z,77.63
2024-01-24T06:47:22.897Z,82.20
2024-01-24T06:49:49.921Z,71.30
2024-01-24T06:52:17.754Z,95.57
2024-01-24T06:54:44.854Z,97.15
2024-01-24T06:57:11.871Z,77.07
2024-01-24T06:59:38.816Z,85.68
2024-01-24T07:02:07.071Z,94.47
2024-01-24T07:04:34.218Z,61.30
2024-01-24T07:07:01.708Z,52.38
2024-01-24T07:09:28.700Z,44.10
2024-01-24T07:11:56.055Z,41.22
2024-01-24T07:14:23.044Z,46.28
2024-01-24T07:16:50.030Z,55.05
2024-01-24T07:19:18.079Z,47.17
2024-01-24T07:21:45.193Z,57.22
2024-01-24T07:24:12.178Z,52.05
2024-01-24T07:26:39.115Z,68.90
2024-01-24T07:29:06.066Z,74.65
2024-01-24T07:31:33.146Z,57.10
2024-01-24T07:34:00.219Z,56.20
2024-01-24T07:36:28.372Z,52.70
2024-01-24T07:38:55.449Z,55.00
2024-01-24T07:41:22.366Z,59.60
2024-01-24T07:43:49.311Z,63.17
2024-01-24T07:46:17.227Z,58.42
2024-01-24T07:48:44.845Z,54.90
2024-01-24T07:51:12.385Z,57.00
2024-01-24T07:53:39.926Z,72.00
2024-01-24T07:56:15.733Z,100.13
2024-01-24T07:58:51.030Z,117.75
2024-01-24T08:01:18.451Z,100.00
2024-01-24T08:03:46.438Z,93.47
2024-01-24T08:06:14.899Z,96.57
2024-01-24T08:08:41.921Z,76.53
2024-01-24T08:11:09.025Z,76.32
2024-01-24T08:13:36.126Z,75.45
2024-01-24T08:16:03.970Z,84.30
2024-01-24T08:18:31.259Z,88.45
2024-01-24T08:20:59.235Z,119.53
2024-01-24T08:23:34.102Z,152.63
2024-01-24T08:26:05.598Z,156.20
2024-01-24T08:28:32.590Z,183.85
2024-01-24T08:30:59.962Z,97.90
2024-01-24T08:33:27.068Z,59.03
2024-01-24T08:35:54.129Z,59.15
2024-01-24T08:38:21.130Z,52.63
2024-01-24T08:40:48.096Z,49.13
2024-01-24T08:43:15.083Z,38.88
2024-01-24T08:45:42.123Z,36.35
2024-01-24T08:48:09.520Z,29.58
2024-01-24T08:50:36.572Z,30.90
2024-01-24T08:53:03.994Z,35.08
2024-01-24T08:55:32.589Z,36.03
2024-01-24T08:57:59.642Z,32.53
2024-01-24T09:00:26.877Z,32.60
2024-01-24T09:02:54.720Z,34.55
2024-01-24T09:05:23.151Z,65.68
2024-01-24T09:07:50.155Z,51.28
2024-01-24T09:10:18.200Z,64.35
2024-01-24T09:12:45.346Z,64.47
2024-01-24T09:15:12.353Z,59.53
2024-01-24T09:17:39.687Z,62.80
2024-01-24T09:20:08.242Z,65.93
2024-01-24T09:22:35.605Z,62.80
2024-01-24T09:25:06.593Z,63.05
2024-01-24T09:27:35.613Z,67.53
2024-01-24T09:30:02.596Z,81.45
2024-01-24T09:32:29.642Z,63.53
2024-01-24T09:34:56.797Z,63.90
2024-01-24T09:37:23.948Z,72.57
2024-01-24T09:39:52.288Z,76.85
2024-01-24T09:42:22.189Z,69.72
2024-01-24T09:44:50.696Z,51.80
2024-01-24T09:47:18.445Z,59.38
2024-01-24T09:49:45.734Z,50.17
2024-01-24T09:52:15.393Z,35.95
2024-01-24T09:54:43.488Z,55.90
2024-01-24T09:57:11.658Z,68.30
2024-01-24T09:59:38.817Z,65.07
2024-01-24T10:02:07.389Z,48.60
2024-01-24T10:04:38.968Z,43.28
2024-01-24T10:07:10.135Z,50.13
2024-01-24T10:09:37.540Z,63.08
2024-01-24T10:12:07.490Z,57.03
2024-01-24T10:14:35.018Z,50.30
2024-01-24T10:17:04.985Z,51.88
2024-01-24T10:19:32.033Z,61.03
2024-01-24T10:21:59.590Z,66.57
2024-01-24T10:24:26.623Z,95.05
2024-01-24T10:26:53.942Z,99.15
2024-01-24T10:29:21.359Z,107.72
2024-01-24T10:31:48.946Z,53.08
2024-01-24T10:34:16.276Z,48.53
2024-01-24T10:36:45.360Z,44.33
2024-01-24T10:39:15.560Z,12.88
2024-01-24T10:41:45.323Z,30.85
2024-01-24T10:44:16.677Z,37.35
2024-01-24T10:46:44.250Z,38.45
2024-01-24T10:49:15.369Z,25.52
2024-01-24T10:51:44.609Z,38.42
2024-01-24T10:54:15.389Z,50.15
2024-01-24T10:56:48.413Z,47.70
2024-01-24T10:59:16.308Z,45.95
2024-01-24T11:01:43.617Z,48.85
2024-01-24T11:04:11.882Z,42.70
2024-01-24T11:07:10.379Z,34.05
2024-01-24T11:09:55.206Z,24.85
2024-01-24T11:12:23.045Z,29.80
2024-01-24T11:14:50.774Z,29.60
2024-01-24T11:17:17.821Z,16.35
2024-01-24T11:19:45.293Z,14.32
2024-01-24T11:22:27.332Z,13.10
2024-01-24T11:24:57.561Z,19.10
2024-01-24T11:27:39.420Z,13.93
2024-01-24T11:30:08.185Z,17.10
2024-01-24T11:32:47.810Z,15.02
2024-01-24T11:35:37.390Z,22.52
2024-01-24T11:38:32.102Z,13.07
2024-01-24T11:41:13.833Z,13.98
2024-01-24T11:43:45.203Z,12.73
2024-01-24T11:46:13.231Z,12.15
2024-01-24T11:48:41.196Z,16.25
2024-01-24T11:51:09.502Z,15.15
2024-01-24T11:53:36.558Z,12.88
2024-01-24T11:56:04.961Z,14.43
2024-01-24T11:58:32.721Z,18.90
2024-01-24T12:01:03.489Z,12.40
2024-01-24T12:03:31.328Z,23.08
2024-01-24T12:06:02.093Z,13.48
2024-01-24T12:08:29.669Z,13.35
2024-01-24T12:10:57.608Z,13.82
2024-01-24T12:13:27.240Z,14.40
2024-01-24T12:15:56.560Z,19.08
2024-01-24T12:18:24.067Z,9.80
2024-01-24T12:20:56.765Z,12.75
2024-01-24T12:23:26.686Z,16.98
2024-01-24T12:25:54.502Z,15.63
2024-01-24T12:28:22.982Z,18.38
2024-01-24T12:30:52.716Z,20.30
2024-01-24T12:33:20.555Z,21.40
2024-01-24T12:35:48.830Z,19.45
2024-01-24T12:38:16.595Z,14.52
2024-01-24T12:40:55.554Z,17.88
2024-01-24T12:43:24.516Z,17.48
2024-01-24T12:45:54.505Z,15.73
2024-01-24T12:48:23.872Z,20.55
2024-01-24T12:50:52.817Z,15.55
2024-01-24T12:53:21.605Z,13.88
2024-01-24T12:55:51.165Z,16.55
2024-01-24T12:58:19.105Z,15.35
2024-01-24T13:00:46.372Z,11.10
2024-01-24T13:03:15.795Z,10.55
2024-01-24T13:05:47.195Z,15.90
2024-01-24T13:08:15.863Z,12.57
2024-01-24T13:10:46.710Z,14.63
2024-01-24T13:13:14.887Z,9.73
2024-01-24T13:15:42.436Z,19.63
2024-01-24T13:18:10.834Z,8.18
2024-01-24T13:20:37.875Z,5.20
2024-01-24T13:23:05.133Z,4.90
2024-01-24T13:25:32.174Z,6.72
2024-01-24T13:28:00.127Z,3.35
2024-01-24T13:30:27.977Z,6.57
2024-01-24T13:32:55.837Z,4.80
2024-01-24T13:35:23.179Z,3.03
2024-01-24T13:37:50.672Z,3.45
2024-01-24T13:40:18.640Z,3.10
2024-01-24T13:42:46.276Z,3.15
2024-01-24T13:45:13.434Z,3.67
2024-01-24T13:47:40.646Z,5.95
2024-01-24T13:50:08.473Z,4.45
2024-01-24T13:52:35.803Z,8.95
2024-01-24T13:55:03.667Z,4.18
2024-01-24T13:57:31.262Z,3.08
2024-01-24T13:59:58.866Z,4.60
2024-01-24T14:02:26.336Z,3.20
2024-01-24T14:04:53.420Z,7.53
2024-01-24T14:07:20.454Z,3.60
2024-01-24T14:09:47.532Z,5.10
2024-01-24T14:12:15.151Z,7.07
2024-01-24T14:14:42.116Z,6.72
2024-01-24T14:17:11.449Z,3.83
2024-01-24T14:19:38.485Z,3.80
2024-01-24T14:22:05.646Z,3.28
2024-01-24T14:24:32.772Z,5.30
2024-01-24T14:26:59.754Z,4.15
2024-01-24T14:29:26.723Z,4.20
2024-01-24T14:31:53.771Z,8.30
2024-01-24T14:34:20.879Z,5.30
2024-01-24T14:36:52.393Z,5.03
2024-01-24T14:39:23.232Z,4.57
2024-01-24T14:41:50.442Z,4.68
2024-01-24T14:44:18.426Z,5.25
2024-01-24T14:46:45.399Z,4.65
2024-01-24T14:49:12.652Z,8.43
2024-01-24T14:51:39.743Z,5.25
2024-01-24T14:54:06.844Z,3.95
2024-01-24T14:56:35.361Z,3.85
2024-01-24T14:59:02.581Z,3.65
2024-01-24T15:01:29.621Z,4.45
2024-01-24T15:04:00.188Z,4.75
2024-01-24T15:06:27.501Z,7.00
2024-01-24T15:08:54.676Z,9.55
2024-01-24T15:11:21.658Z,3.33
2024-01-24T15:13:48.615Z,5.50
2024-01-24T15:16:16.399Z,5.45
2024-01-24T15:18:44.399Z,4.53
2024-01-24T15:21:13.680Z,5.07
2024-01-24T15:23:41.907Z,6.45
2024-01-24T15:26:11.131Z,7.95
2024-01-24T15:28:40.331Z,10.45
2024-01-24T15:31:08.680Z,9.23
2024-01-24T15:33:35.978Z,9.00
2024-01-24T15:36:03.444Z,9.00
2024-01-24T15:38:30.540Z,8.07
2024-01-24T15:40:58.119Z,12.35
2024-01-24T15:43:27.783Z,8.38
2024-01-24T15:45:55.194Z,8.40
2024-01-24T15:48:22.362Z,9.10
2024-01-24T15:50:49.894Z,8.48
2024-01-24T15:53:17.126Z,6.28
2024-01-24T15:55:44.217Z,8.38
2024-01-24T15:58:11.685Z,11.15
2024-01-24T16:00:38.842Z,11.68
2024-01-24T16:03:06.067Z,17.27
2024-01-24T16:05:46.777Z,25.60
2024-01-24T16:08:15.836Z,18.35
2024-01-24T16:10:43.911Z,7.45
2024-01-24T16:13:11.516Z,9.00
2024-01-24T16:15:39.306Z,7.15
2024-01-24T16:18:07.230Z,12.88
2024-01-24T16:20:35.466Z,13.55
2024-01-24T16:23:02.503Z,10.75
2024-01-24T16:25:29.528Z,7.25
2024-01-24T16:27:56.776Z,9.82
2024-01-24T16:30:29.353Z,7.50
2024-01-24T16:32:57.516Z,14.15
2024-01-24T16:35:24.930Z,12.90
2024-01-24T16:37:53.061Z,11.82
2024-01-24T16:40:20.257Z,22.95
2024-01-24T16:42:47.416Z,19.35
2024-01-24T16:45:15.892Z,15.93
2024-01-24T16:47:45.956Z,15.13
2024-01-24T16:50:14.917Z,15.52
2024-01-24T16:52:42.032Z,13.32
2024-01-24T16:55:09.776Z,12.80
2024-01-24T16:57:37.036Z,13.93
2024-01-24T17:00:05.493Z,12.40
2024-01-24T17:02:38.606Z,23.52
2024-01-24T17:05:13.715Z,25.50
2024-01-24T17:07:41.041Z,28.33
2024-01-24T17:10:08.449Z,25.35
2024-01-24T17:12:37.075Z,26.63
2024-01-24T17:15:04.507Z,21.35
2024-01-24T17:17:31.517Z,21.27
2024-01-24T17:19:59.054Z,25.73
2024-01-24T17:22:27.895Z,22.40
2024-01-24T17:24:54.981Z,29.48
2024-01-24T17:27:22.290Z,24.40
2024-01-24T17:29:49.355Z,22.48
2024-01-24T17:32:17.244Z,18.10
2024-01-24T17:34:44.562Z,20.42
2024-01-24T17:37:13.308Z,24.38
2024-01-24T17:39:40.333Z,22.08
2024-01-24T17:42:07.531Z,100.55
2024-01-24T17:44:35.454Z,109.10
2024-01-24T17:47:02.740Z,163.07
2024-01-24T17:49:29.973Z,85.82
2024-01-24T17:51:57.806Z,63.05
2024-01-24T17:54:25.159Z,70.82
2024-01-24T17:56:52.306Z,61.80
2024-01-24T17:59:19.862Z,85.05
2024-01-24T18:01:47.826Z,59.60
2024-01-24T18:04:15.246Z,47.35
2024-01-24T18:06:42.858Z,31.48
2024-01-24T18:09:10.140Z,30.02
2024-01-24T18:11:39.305Z,28.77
2024-01-24T18:14:06.535Z,25.25
2024-01-24T18:16:33.604Z,24.63
2024-01-24T18:19:00.667Z,29.50
2024-01-24T18:21:28.024Z,23.63
2024-01-24T18:23:55.473Z,28.30
2024-01-24T18:26:22.448Z,24.52
2024-01-24T18:28:51.288Z,17.80
2024-01-24T18:31:18.979Z,21.73
2024-01-24T18:33:46.206Z,36.72
2024-01-24T18:36:13.456Z,45.03
2024-01-24T18:38:41.615Z,69.07
2024-01-24T18:41:08.678Z,67.68
2024-01-24T18:43:35.794Z,64.65
2024-01-24T18:46:03.024Z,62.25
2024-01-24T18:48:30.436Z,81.05
2024-01-24T18:50:57.791Z,82.78
2024-01-24T18:53:25.077Z,74.35
2024-01-24T18:55:53.605Z,68.13
2024-01-24T18:58:21.533Z,68.85
2024-01-24T19:00:49.175Z,65.38
2024-01-24T19:03:16.513Z,67.65
2024-01-24T19:05:43.895Z,65.30
2024-01-24T19:08:14.458Z,56.65
2024-01-24T19:10:41.799Z,71.45
2024-01-24T19:13:09.137Z,65.55
2024-01-24T19:15:37.809Z,69.07
2024-01-24T19:18:11.050Z,74.18
2024-01-24T19:20:43.162Z,74.95
2024-01-24T19:23:10.891Z,79.90
2024-01-24T19:25:38.109Z,81.13
2024-01-24T19:28:05.435Z,81.13
2024-01-24T19:30:32.463Z,69.53
2024-01-24T19:32:59.582Z,70.38
2024-01-24T19:35:28.945Z,83.18
2024-01-24T19:37:56.403Z,96.70
2024-01-24T19:40:23.756Z,57.80
2024-01-24T19:42:51.022Z,66.60
2024-01-24T19:45:18.139Z,62.70
2024-01-24T19:47:45.412Z,70.20
2024-01-24T19:50:12.600Z,64.38
2024-01-24T19:52:40.154Z,63.33
2024-01-24T19:55:08.554Z,63.15
2024-01-24T19:57:37.033Z,63.67
2024-01-24T20:00:04.998Z,73.80
2024-01-24T20:02:34.133Z,74.70
2024-01-24T20:05:02.913Z,72.20
2024-01-24T20:07:30.091Z,74.07
2024-01-24T20:09:57.168Z,68.70
2024-01-24T20:12:24.468Z,71.75
2024-01-24T20:14:51.679Z,76.25
2024-01-24T20:17:21.045Z,76.60
2024-01-24T20:19:50.262Z,100.00
2024-01-24T20:22:18.239Z,90.50
2024-01-24T20:24:46.686Z,94.55
2024-01-24T20:27:13.756Z,111.53
2024-01-24T20:29:40.763Z,118.32
2024-01-24T20:32:07.912Z,109.75
2024-01-24T20:34:35.296Z,115.35
2024-01-24T20:37:03.317Z,133.50
2024-01-24T20:39:30.623Z,143.57
2024-01-24T20:41:58.244Z,171.70
2024-01-24T20:44:25.251Z,152.77
2024-01-24T20:46:52.498Z,137.57
2024-01-24T20:49:19.510Z,145.98
2024-01-24T20:51:50.411Z,167.13
2024-01-24T20:54:17.689Z,154.05
2024-01-24T20:56:45.212Z,155.90
2024-01-24T20:59:12.367Z,165.13
2024-01-24T21:01:39.517Z,156.95
2024-01-24T21:04:06.736Z,175.73
2024-01-24T21:06:34.044Z,160.65
2024-01-24T21:09:01.042Z,152.88
2024-01-24T21:11:29.110Z,137.93
2024-01-24T21:13:56.158Z,140.57
2024-01-24T21:16:23.429Z,134.63
2024-01-24T21:18:51.168Z,127.63
2024-01-24T21:21:18.395Z,133.70
2024-01-24T21:23:45.457Z,170.10
2024-01-24T21:26:12.455Z,169.45
2024-01-24T21:28:40.732Z,161.20
2024-01-24T21:31:08.680Z,138.65
2024-01-24T21:33:36.392Z,157.07
2024-01-24T21:36:03.941Z,158.98
2024-01-24T21:38:30.935Z,147.27
2024-01-24T21:40:57.958Z,161.30
2024-01-24T21:43:24.922Z,140.55
2024-01-24T21:45:51.967Z,146.52
2024-01-24T21:48:19.144Z,135.95
2024-01-24T21:50:46.885Z,143.73
2024-01-24T21:53:13.867Z,162.15
2024-01-24T21:55:42.518Z,205.48
2024-01-24T21:58:09.625Z,205.48
2024-01-24T22:00:36.755Z,211.38
2024-01-24T22:03:04.377Z,304.92
2024-01-24T22:05:31.471Z,341.75
2024-01-24T22:07:59.560Z,205.13
2024-01-24T22:10:26.615Z,225.95
2024-01-24T22:12:56.185Z,251.90
2024-01-24T22:15:23.257Z,278.23
2024-01-24T22:17:51.031Z,198.02
2024-01-24T22:20:18.212Z,143.82
2024-01-24T22:22:45.588Z,159.30
2024-01-24T22:25:12.669Z,194.13
2024-01-24T22:27:40.514Z,182.98
2024-01-24T22:30:08.078Z,192.35
2024-01-24T22:32:35.514Z,171.48
2024-01-24T22:35:03.043Z,178.07
2024-01-24T22:37:30.230Z,155.13
2024-01-24T22:39:57.483Z,148.77
2024-01-24T22:42:24.562Z,156.70
2024-01-24T22:44:51.626Z,173.05
2024-01-24T22:47:20.666Z,177.75
2024-01-24T22:49:47.790Z,176.98
2024-01-24T22:52:15.036Z,174.27
2024-01-24T22:54:42.214Z,167.63
2024-01-24T22:57:09.301Z,170.38
2024-01-24T22:59:36.279Z,154.27
2024-01-24T23:02:03.442Z,145.95
2024-01-24T23:04:32.177Z,140.02
2024-01-24T23:06:59.439Z,134.75
2024-01-24T23:09:26.495Z,131.23
2024-01-24T23:11:53.725Z,131.73
2024-01-24T23:14:20.708Z,132.32
2024-01-24T23:16:48.912Z,129.88
2024-01-24T23:19:17.012Z,135.07
2024-01-24T23:21:44.112Z,178.02
2024-01-24T23:24:11.239Z,152.00
2024-01-24T23:26:38.768Z,143.45
2024-01-24T23:29:06.551Z,150.15
2024-01-24T23:31:33.544Z,151.85
2024-01-24T23:34:00.764Z,148.25
2024-01-24T23:36:27.967Z,155.27
2024-01-24T23:38:56.744Z,160.90
2024-01-24T23:41:23.916Z,160.52
2024-01-24T23:43:52.417Z,154.38
2024-01-24T23:46:19.624Z,156.32
2024-01-24T23:48:46.895Z,162.85
2024-01-24T23:51:14.956Z,168.65
2024-01-24T23:53:42.276Z,179.55
2024-01-24T23:56:09.291Z,183.77
2024-01-24T23:58:36.526Z,162.10
